Time;durP1;ratioP1;P1;durP2;ratioP2;P2;SDS_P1;SDS_P2;PMS_P1;PMS_P2;Temp;Humidity;BMP_temperature;BMP_pressure;BME280_temperature;BME280_humidity;BME280_pressure;Samples;Min_cycle;Max_cycle;Signal;HPM_P1;HPM_P2
2023/09/04 00:00:08;;;;;;;7.00;3.20;;;;;;;;;;2079947;28;20522;-89
2023/09/04 00:01:08;;;;;;;5.50;3.70;;;;;;;;;;2072084;28;20535;-89
2023/09/04 00:02:08;;;;;;;4.20;3.60;;;;;;;;;;2064192;28;20050;-90
2023/09/04 00:03:09;;;;;;;5.38;3.30;;;;;;;;;;2080113;28;20605;-89
2023/09/04 00:04:09;;;;;;;4.78;3.33;;;;;;;;;;2080277;28;20041;-89
2023/09/04 00:05:10;;;;;;;3.85;2.92;;;;;;;;;;2072539;28;20033;-89
2023/09/04 00:06:10;;;;;;;6.20;3.55;;;;;;;;;;2072601;28;20121;-89
2023/09/04 00:07:11;;;;;;;5.82;3.45;;;;;;;;;;2063586;28;20046;-89
2023/09/04 00:08:11;;;;;;;5.80;3.55;;;;;;;;;;2063971;28;20098;-89
2023/09/04 00:09:14;;;;;;;4.72;3.45;;;;;;;;;;2072111;28;20036;-90
2023/09/04 00:10:15;;;;;;;5.85;3.80;;;;;;;;;;2074835;28;20344;-89
2023/09/04 00:11:15;;;;;;;3.92;3.40;;;;;;;;;;2070924;28;20039;-87
2023/09/04 00:12:15;;;;;;;4.63;3.20;;;;;;;;;;2075075;28;20511;-91
2023/09/04 00:13:16;;;;;;;5.35;3.22;;;;;;;;;;2063460;28;20034;-89
2023/09/04 00:14:17;;;;;;;6.25;3.10;;;;;;;;;;2063860;28;20034;-89
2023/09/04 00:15:17;;;;;;;5.40;2.97;;;;;;;;;;2063843;28;20030;-89
2023/09/04 00:16:18;;;;;;;3.75;3.30;;;;;;;;;;2080264;28;20026;-90
2023/09/04 00:17:18;;;;;;;5.90;3.47;;;;;;;;;;2079222;28;20091;-89
2023/09/04 00:18:18;;;;;;;4.57;3.45;;;;;;;;;;2070399;28;20049;-89
2023/09/04 00:19:19;;;;;;;4.60;3.05;;;;;;;;;;2071995;28;20112;-90
2023/09/04 00:20:19;;;;;;;4.25;3.00;;;;;;;;;;2063973;28;20049;-89
2023/09/04 00:21:20;;;;;;;4.90;3.10;;;;;;;;;;2063704;28;20499;-89
2023/09/04 00:22:21;;;;;;;3.78;2.88;;;;;;;;;;2066503;28;20042;-89
2023/09/04 00:23:21;;;;;;;4.60;2.95;;;;;;;;;;2072926;28;20044;-89
2023/09/04 00:24:23;;;;;;;6.47;3.42;;;;;;;;;;2080146;28;20087;-89
2023/09/04 00:25:24;;;;;;;4.75;3.08;;;;;;;;;;2079936;28;20521;-89
2023/09/04 00:26:25;;;;;;;5.40;3.22;;;;;;;;;;2072793;28;20040;-88
2023/09/04 00:27:26;;;;;;;5.82;3.42;;;;;;;;;;2072730;28;20042;-90
2023/09/04 00:28:26;;;;;;;4.35;3.30;;;;;;;;;;2072281;28;20040;-89
2023/09/04 00:29:27;;;;;;;5.72;2.67;;;;;;;;;;2064181;28;20042;-88
2023/09/04 00:30:27;;;;;;;5.13;3.35;;;;;;;;;;2063997;28;20038;-90
2023/09/04 00:31:27;;;;;;;3.88;3.00;;;;;;;;;;2071871;28;20116;-90
2023/09/04 00:32:28;;;;;;;3.75;3.38;;;;;;;;;;2072429;28;20069;-90
2023/09/04 00:33:28;;;;;;;6.43;3.30;;;;;;;;;;2071594;28;20121;-90
2023/09/04 00:34:29;;;;;;;4.03;3.63;;;;;;;;;;2072196;28;20041;-90
2023/09/04 00:35:29;;;;;;;4.22;3.35;;;;;;;;;;2080047;28;20092;-90
2023/09/04 00:36:29;;;;;;;4.43;3.45;;;;;;;;;;2071782;28;20423;-89
2023/09/04 00:37:30;;;;;;;5.47;3.45;;;;;;;;;;2063701;28;20222;-89
2023/09/04 00:38:30;;;;;;;4.47;3.08;;;;;;;;;;2063893;28;20034;-90
2023/09/04 00:39:31;;;;;;;4.78;3.30;;;;;;;;;;2072351;28;20037;-90
2023/09/04 00:40:32;;;;;;;4.78;3.33;;;;;;;;;;2064010;28;20073;-90
2023/09/04 00:41:32;;;;;;;5.70;3.53;;;;;;;;;;2063579;28;20045;-90
2023/09/04 00:42:33;;;;;;;5.70;3.17;;;;;;;;;;2080035;28;20084;-90
2023/09/04 00:43:37;;;;;;;4.95;3.42;;;;;;;;;;2079889;28;20033;-90
2023/09/04 00:44:37;;;;;;;6.35;3.38;;;;;;;;;;2079645;28;20499;-90
2023/09/04 00:45:39;;;;;;;4.97;3.35;;;;;;;;;;2080130;28;20069;-89
2023/09/04 00:46:41;;;;;;;4.03;3.20;;;;;;;;;;2072502;28;20113;-90
2023/09/04 00:47:44;;;;;;;6.07;3.72;;;;;;;;;;2063648;28;20082;-90
2023/09/04 00:48:44;;;;;;;5.78;3.58;;;;;;;;;;2063797;28;20042;-90
2023/09/04 00:49:47;;;;;;;3.72;3.03;;;;;;;;;;2072207;28;20046;-90
2023/09/04 00:50:47;;;;;;;4.60;3.53;;;;;;;;;;2072195;28;20687;-90
2023/09/04 00:51:48;;;;;;;7.45;3.60;;;;;;;;;;2079567;28;20071;-89
2023/09/04 00:52:52;;;;;;;5.82;3.67;;;;;;;;;;2087850;28;20108;-90
2023/09/04 00:53:52;;;;;;;4.78;3.20;;;;;;;;;;2079491;28;20080;-90
2023/09/04 00:54:54;;;;;;;3.67;2.90;;;;;;;;;;2072474;28;20047;-90
2023/09/04 00:55:56;;;;;;;6.00;3.03;;;;;;;;;;2079509;28;20049;-90
2023/09/04 00:56:57;;;;;;;4.50;3.17;;;;;;;;;;2072111;28;20062;-89
2023/09/04 00:57:58;;;;;;;4.43;3.03;;;;;;;;;;2070391;28;20042;-90
2023/09/04 00:58:59;;;;;;;3.58;2.67;;;;;;;;;;2070864;28;20571;-90
2023/09/04 01:00:05;;;;;;;4.93;3.53;;;;;;;;;;2063675;28;20049;-89
2023/09/04 01:01:05;;;;;;;5.40;3.60;;;;;;;;;;2080123;28;20045;-90
2023/09/04 01:02:06;;;;;;;4.18;3.53;;;;;;;;;;2071561;28;20102;-90
2023/09/04 01:03:08;;;;;;;4.82;3.10;;;;;;;;;;2063449;28;20097;-90
2023/09/04 01:04:08;;;;;;;3.95;3.35;;;;;;;;;;2072226;28;20053;-90
2023/09/04 01:05:09;;;;;;;4.30;3.08;;;;;;;;;;2072179;28;20120;-90
2023/09/04 01:06:09;;;;;;;4.40;3.35;;;;;;;;;;2071807;28;20050;-90
2023/09/04 01:07:09;;;;;;;8.27;3.47;;;;;;;;;;2071438;28;20048;-90
2023/09/04 01:08:10;;;;;;;6.95;3.33;;;;;;;;;;2060950;28;20109;-90
2023/09/04 01:09:10;;;;;;;3.72;3.10;;;;;;;;;;2063794;28;20042;-90
2023/09/04 01:10:13;;;;;;;6.20;3.25;;;;;;;;;;2079566;28;20496;-90
2023/09/04 01:11:42;;;;;;;3.47;3.15;;;;;;;;;;2079756;28;20045;-90
2023/09/04 01:12:47;;;;;;;3.72;3.13;;;;;;;;;;2067253;28;20049;-90
2023/09/04 01:13:52;;;;;;;3.60;3.08;;;;;;;;;;2071786;28;20505;-90
2023/09/04 01:14:55;;;;;;;4.47;3.10;;;;;;;;;;2071837;28;20076;-90
2023/09/04 01:15:56;;;;;;;4.30;3.17;;;;;;;;;;2072387;28;20505;-91
2023/09/04 01:16:58;;;;;;;4.40;2.97;;;;;;;;;;2071711;28;20041;-90
2023/09/04 01:17:59;;;;;;;6.22;3.17;;;;;;;;;;2063764;28;20070;-91
2023/09/04 01:19:00;;;;;;;5.80;3.20;;;;;;;;;;2063392;28;20050;-90
2023/09/04 01:20:23;;;;;;;4.00;3.08;;;;;;;;;;2079224;28;20452;-91
2023/09/04 01:21:23;;;;;;;2.97;2.67;;;;;;;;;;2068558;28;20044;-90
2023/09/04 01:22:25;;;;;;;3.33;3.00;;;;;;;;;;2071343;28;20526;-91
2023/09/04 01:23:25;;;;;;;4.65;3.17;;;;;;;;;;2079793;28;20037;-90
2023/09/04 01:24:26;;;;;;;3.75;2.95;;;;;;;;;;2072340;28;20054;-90
2023/09/04 01:26:07;;;;;;;4.13;2.97;;;;;;;;;;2071293;28;20033;-89
2023/09/04 01:27:17;;;;;;;;;;;;;;;;;;2071875;28;20053;-89
2023/09/04 01:28:25;;;;;;;4.22;2.78;;;;;;;;;;2080034;28;19917;-89
2023/09/04 01:29:31;;;;;;;3.33;2.60;;;;;;;;;;2070554;28;20034;-90
2023/09/04 01:30:47;;;;;;;3.75;2.83;;;;;;;;;;2064242;28;20034;-91
2023/09/04 01:31:58;;;;;;;3.28;2.65;;;;;;;;;;2063045;28;20046;-90
2023/09/04 01:33:04;;;;;;;3.97;2.85;;;;;;;;;;2064636;28;20038;-90
2023/09/04 01:34:16;;;;;;;2.85;2.55;;;;;;;;;;2071464;28;20155;-89
2023/09/04 01:35:20;;;;;;;3.03;2.72;;;;;;;;;;2071936;28;20077;-89
2023/09/04 01:36:23;;;;;;;4.10;2.53;;;;;;;;;;2079357;28;20219;-89
2023/09/04 01:37:24;;;;;;;5.25;2.78;;;;;;;;;;2071205;28;20443;-89
2023/09/04 01:38:25;;;;;;;3.08;2.67;;;;;;;;;;2063639;28;20496;-90
2023/09/04 01:39:26;;;;;;;3.17;2.80;;;;;;;;;;2079483;28;20037;-89
2023/09/04 01:40:27;;;;;;;3.47;2.70;;;;;;;;;;2071338;28;20030;-89
2023/09/04 01:41:27;;;;;;;2.83;2.60;;;;;;;;;;2063272;28;20106;-89
2023/09/04 01:42:27;;;;;;;2.83;2.20;;;;;;;;;;2071855;28;20064;-90
2023/09/04 01:43:29;;;;;;;3.38;2.75;;;;;;;;;;2072342;28;20399;-90
2023/09/04 01:44:29;;;;;;;4.15;2.90;;;;;;;;;;2074743;28;20042;-89
2023/09/04 01:45:29;;;;;;;2.88;2.20;;;;;;;;;;2069710;28;20300;-88
2023/09/04 01:46:30;;;;;;;3.47;2.65;;;;;;;;;;2066831;28;20049;-89
2023/09/04 01:47:30;;;;;;;3.47;2.58;;;;;;;;;;2063196;28;20038;-90
2023/09/04 01:48:31;;;;;;;3.92;2.50;;;;;;;;;;1711431;28;10414527;-90
2023/09/04 01:49:31;;;;;;;3.33;2.63;;;;;;;;;;2079685;28;20171;-90
2023/09/04 01:50:32;;;;;;;2.75;2.50;;;;;;;;;;2079084;28;20033;-90
2023/09/04 01:51:32;;;;;;;4.05;2.25;;;;;;;;;;2071080;28;20037;-91
2023/09/04 01:52:33;;;;;;;2.90;2.50;;;;;;;;;;2062911;28;20034;-90
2023/09/04 01:53:34;;;;;;;2.90;2.60;;;;;;;;;;2063174;28;20059;-90
2023/09/04 01:54:34;;;;;;;4.28;2.33;;;;;;;;;;2063365;28;20074;-91
2023/09/04 01:55:34;;;;;;;3.45;2.72;;;;;;;;;;2079506;28;20065;-90
2023/09/04 01:56:35;;;;;;;2.78;2.20;;;;;;;;;;2071373;28;20561;-90
2023/09/04 01:57:35;;;;;;;3.60;2.42;;;;;;;;;;2063182;28;20140;-90
2023/09/04 01:58:35;;;;;;;3.03;2.35;;;;;;;;;;2062795;28;20144;-90
2023/09/04 01:59:36;;;;;;;3.22;2.58;;;;;;;;;;2071219;28;20045;-90
2023/09/04 02:00:37;;;;;;;3.60;2.40;;;;;;;;;;2079595;28;20099;-90
2023/09/04 02:01:37;;;;;;;2.63;2.28;;;;;;;;;;2063134;28;20144;-90
2023/09/04 02:02:38;;;;;;;3.45;2.38;;;;;;;;;;2071276;28;20064;-90
2023/09/04 02:03:38;;;;;;;4.32;2.60;;;;;;;;;;2079503;28;20076;-90
2023/09/04 02:04:39;;;;;;;2.85;2.40;;;;;;;;;;2063285;28;20042;-90
2023/09/04 02:05:39;;;;;;;3.72;2.55;;;;;;;;;;2062769;28;20042;-90
2023/09/04 02:06:40;;;;;;;3.80;2.28;;;;;;;;;;2063024;28;20045;-90
2023/09/04 02:07:40;;;;;;;4.93;2.38;;;;;;;;;;2062591;28;20052;-89
2023/09/04 02:08:41;;;;;;;4.68;2.38;;;;;;;;;;2071999;28;20041;-90
2023/09/04 02:09:41;;;;;;;4.45;2.50;;;;;;;;;;2086993;28;20142;-89
2023/09/04 02:10:42;;;;;;;3.30;2.55;;;;;;;;;;2087551;28;20483;-89
2023/09/04 02:11:42;;;;;;;3.33;2.28;;;;;;;;;;2063448;28;20125;-89
2023/09/04 02:12:43;;;;;;;3.88;2.35;;;;;;;;;;2063218;28;20042;-89
2023/09/04 02:13:46;;;;;;;3.30;2.25;;;;;;;;;;2079591;28;20037;-90
2023/09/04 02:14:46;;;;;;;4.68;2.42;;;;;;;;;;2070768;28;20037;-89
2023/09/04 02:15:47;;;;;;;3.58;2.40;;;;;;;;;;2062841;28;20475;-89
2023/09/04 02:16:47;;;;;;;3.05;2.75;;;;;;;;;;2071306;28;20163;-90
2023/09/04 02:17:47;;;;;;;3.28;2.50;;;;;;;;;;2078914;28;20398;-90
2023/09/04 02:18:48;;;;;;;5.05;2.30;;;;;;;;;;2062911;28;20038;-90
2023/09/04 02:19:49;;;;;;;2.72;2.33;;;;;;;;;;2064337;28;20052;-90
2023/09/04 02:20:49;;;;;;;3.83;2.75;;;;;;;;;;2062904;28;20089;-89
2023/09/04 02:21:49;;;;;;;4.55;2.50;;;;;;;;;;2071295;28;20064;-89
2023/09/04 02:22:51;;;;;;;3.33;2.47;;;;;;;;;;2071262;28;20509;-91
2023/09/04 02:23:51;;;;;;;3.30;2.50;;;;;;;;;;2063099;28;20456;-89
2023/09/04 02:24:51;;;;;;;3.22;2.35;;;;;;;;;;2063032;28;20046;-91
2023/09/04 02:25:52;;;;;;;2.78;2.35;;;;;;;;;;2063214;28;20116;-90
2023/09/04 02:26:52;;;;;;;3.45;2.75;;;;;;;;;;2062575;28;20069;-89
2023/09/04 02:27:53;;;;;;;3.03;2.25;;;;;;;;;;2070853;28;20050;-90
2023/09/04 02:28:53;;;;;;;4.65;2.50;;;;;;;;;;2071052;28;20088;-89
2023/09/04 02:29:53;;;;;;;3.25;2.45;;;;;;;;;;2062984;28;20043;-90
2023/09/04 02:30:54;;;;;;;2.83;2.42;;;;;;;;;;2073205;28;20506;-90
2023/09/04 02:31:54;;;;;;;3.38;2.50;;;;;;;;;;2070374;28;20058;-89
2023/09/04 02:32:58;;;;;;;4.55;2.63;;;;;;;;;;2073859;28;20640;-89
2023/09/04 02:33:59;;;;;;;3.35;2.72;;;;;;;;;;2074123;28;20046;-89
2023/09/04 02:34:59;;;;;;;3.10;2.65;;;;;;;;;;2081998;28;20410;-89
2023/09/04 02:36:00;;;;;;;3.65;2.67;;;;;;;;;;2065532;28;20053;-90
2023/09/04 02:37:00;;;;;;;3.85;2.60;;;;;;;;;;2066002;28;20039;-90
2023/09/04 02:38:01;;;;;;;3.65;2.80;;;;;;;;;;2082122;28;20051;-89
2023/09/04 02:39:01;;;;;;;4.53;2.63;;;;;;;;;;2082049;28;20080;-90
2023/09/04 02:40:05;;;;;;;2.75;2.25;;;;;;;;;;2065909;28;20275;-90
2023/09/04 02:41:06;;;;;;;3.72;2.55;;;;;;;;;;2066297;28;20031;-90
2023/09/04 02:42:06;;;;;;;3.45;2.97;;;;;;;;;;2073836;28;20415;-90
2023/09/04 02:43:06;;;;;;;3.20;2.90;;;;;;;;;;2073596;28;20042;-90
2023/09/04 02:44:07;;;;;;;3.65;2.75;;;;;;;;;;2081738;28;20048;-91
2023/09/04 02:45:08;;;;;;;3.25;2.90;;;;;;;;;;2082546;28;20048;-89
2023/09/04 02:46:08;;;;;;;2.97;2.72;;;;;;;;;;2077972;28;20129;-89
2023/09/04 02:47:09;;;;;;;3.20;2.63;;;;;;;;;;2077967;28;20041;-89
2023/09/04 02:48:09;;;;;;;3.90;2.55;;;;;;;;;;2076893;28;20510;-90
2023/09/04 02:49:09;;;;;;;4.65;2.92;;;;;;;;;;2085598;28;20036;-90
2023/09/04 02:50:10;;;;;;;3.40;2.65;;;;;;;;;;2078737;28;20049;-90
2023/09/04 02:51:11;;;;;;;2.88;2.58;;;;;;;;;;2072174;28;20034;-90
2023/09/04 02:52:11;;;;;;;4.97;3.08;;;;;;;;;;2072252;28;20060;-90
2023/09/04 02:53:12;;;;;;;4.20;2.80;;;;;;;;;;2071367;28;20045;-90
2023/09/04 02:54:12;;;;;;;4.03;2.90;;;;;;;;;;2077244;28;20045;-90
2023/09/04 02:55:12;;;;;;;5.00;2.75;;;;;;;;;;2083758;28;20042;-89
2023/09/04 02:56:13;;;;;;;4.60;2.70;;;;;;;;;;2065607;28;20062;-90
2023/09/04 02:57:13;;;;;;;3.67;2.70;;;;;;;;;;2065763;28;20504;-91
2023/09/04 02:58:13;;;;;;;5.50;3.00;;;;;;;;;;2074668;28;20132;-91
2023/09/04 02:59:14;;;;;;;4.68;2.83;;;;;;;;;;2065476;28;20046;-91
2023/09/04 03:00:14;;;;;;;3.17;2.55;;;;;;;;;;2073593;28;20535;-90
2023/09/04 03:01:16;;;;;;;4.45;2.90;;;;;;;;;;2074485;28;20056;-90
2023/09/04 03:02:16;;;;;;;3.55;2.80;;;;;;;;;;2065578;28;20042;-90
2023/09/04 03:03:19;;;;;;;5.00;3.50;;;;;;;;;;2068838;28;20440;-91
2023/09/04 03:04:19;;;;;;;5.53;3.05;;;;;;;;;;2069862;28;20113;-90
2023/09/04 03:05:20;;;;;;;4.00;2.70;;;;;;;;;;2085929;28;20080;-91
2023/09/04 03:06:20;;;;;;;6.18;3.15;;;;;;;;;;2078128;28;20033;-90
2023/09/04 03:07:22;;;;;;;5.13;3.25;;;;;;;;;;2069836;28;20030;-90
2023/09/04 03:08:22;;;;;;;3.40;2.78;;;;;;;;;;2069634;28;20042;-90
2023/09/04 03:09:24;;;;;;;3.40;2.70;;;;;;;;;;2077662;28;20463;-89
2023/09/04 03:10:24;;;;;;;5.40;3.30;;;;;;;;;;2067736;28;20538;-89
2023/09/04 03:11:25;;;;;;;3.60;2.80;;;;;;;;;;2067350;28;20034;-90
2023/09/04 03:12:30;;;;;;;3.33;2.90;;;;;;;;;;2067274;28;20116;-90
2023/09/04 03:13:30;;;;;;;3.45;2.70;;;;;;;;;;2074320;28;20060;-90
2023/09/04 03:14:31;;;;;;;3.40;2.78;;;;;;;;;;2065505;28;20488;-90
2023/09/04 03:15:31;;;;;;;3.17;2.85;;;;;;;;;;2073722;28;20066;-90
2023/09/04 03:16:32;;;;;;;6.35;3.05;;;;;;;;;;2081738;28;20415;-91
2023/09/04 03:17:33;;;;;;;4.88;3.28;;;;;;;;;;2074691;28;20042;-90
2023/09/04 03:18:34;;;;;;;4.43;3.15;;;;;;;;;;2076062;28;20038;-90
2023/09/04 03:19:34;;;;;;;3.42;2.55;;;;;;;;;;2090001;28;20419;-89
2023/09/04 03:20:35;;;;;;;3.80;3.13;;;;;;;;;;2079358;28;20440;-89
2023/09/04 03:21:35;;;;;;;4.25;3.13;;;;;;;;;;2066046;28;20093;-92
2023/09/04 03:22:36;;;;;;;3.53;3.17;;;;;;;;;;2081972;28;20045;-90
2023/09/04 03:23:36;;;;;;;4.63;3.38;;;;;;;;;;2073974;28;20053;-89
2023/09/04 03:24:36;;;;;;;4.28;2.80;;;;;;;;;;2065693;28;20085;-90
2023/09/04 03:25:37;;;;;;;3.92;2.72;;;;;;;;;;2065421;28;20443;-89
2023/09/04 03:26:37;;;;;;;4.65;3.00;;;;;;;;;;2065666;28;20069;-89
2023/09/04 03:27:37;;;;;;;3.47;2.83;;;;;;;;;;2073825;28;20049;-89
2023/09/04 03:28:38;;;;;;;4.28;3.15;;;;;;;;;;2082582;28;20403;-90
2023/09/04 03:29:38;;;;;;;4.40;3.00;;;;;;;;;;2090266;28;20060;-89
2023/09/04 03:30:39;;;;;;;3.88;3.17;;;;;;;;;;2073730;28;20045;-89
2023/09/04 03:31:39;;;;;;;4.03;3.13;;;;;;;;;;2065710;28;20053;-89
2023/09/04 03:32:39;;;;;;;5.28;3.20;;;;;;;;;;2073876;28;20522;-89
2023/09/04 03:33:41;;;;;;;4.88;2.72;;;;;;;;;;2082022;28;20095;-90
2023/09/04 03:34:41;;;;;;;5.97;3.30;;;;;;;;;;2065496;28;20374;-89
2023/09/04 03:35:41;;;;;;;3.42;3.00;;;;;;;;;;2073630;28;20420;-88
2023/09/04 03:36:42;;;;;;;4.00;2.88;;;;;;;;;;2081675;28;20041;-90
2023/09/04 03:37:42;;;;;;;3.30;3.00;;;;;;;;;;2065373;28;20096;-90
2023/09/04 03:38:43;;;;;;;4.43;3.22;;;;;;;;;;2065381;28;20568;-89
2023/09/04 03:39:43;;;;;;;4.30;2.88;;;;;;;;;;2065350;28;20038;-91
2023/09/04 03:40:44;;;;;;;3.83;3.10;;;;;;;;;;2065146;28;20527;-91
2023/09/04 03:41:44;;;;;;;4.57;2.97;;;;;;;;;;2073893;28;20062;-91
2023/09/04 03:42:44;;;;;;;4.15;3.20;;;;;;;;;;2072312;28;20046;-90
2023/09/04 03:43:45;;;;;;;4.13;2.78;;;;;;;;;;2064493;28;20518;-90
2023/09/04 03:44:45;;;;;;;4.97;3.05;;;;;;;;;;2072551;28;20073;-89
2023/09/04 03:45:45;;;;;;;3.50;3.13;;;;;;;;;;2080516;28;20038;-91
2023/09/04 03:46:46;;;;;;;2.92;2.55;;;;;;;;;;2064005;28;20112;-91
2023/09/04 03:47:47;;;;;;;3.22;2.90;;;;;;;;;;2072125;28;20038;-90
2023/09/04 03:48:47;;;;;;;4.07;2.97;;;;;;;;;;2088271;28;20033;-90
2023/09/04 03:49:48;;;;;;;4.53;3.00;;;;;;;;;;2072315;28;20066;-90
2023/09/04 03:50:48;;;;;;;4.28;2.63;;;;;;;;;;2063983;28;20543;-90
2023/09/04 03:51:49;;;;;;;3.97;2.90;;;;;;;;;;2064169;28;20094;-90
2023/09/04 03:52:49;;;;;;;3.67;2.70;;;;;;;;;;2056192;28;20187;-90
2023/09/04 03:53:50;;;;;;;3.40;2.85;;;;;;;;;;2064399;28;20411;-89
2023/09/04 03:54:50;;;;;;;3.95;2.80;;;;;;;;;;2072861;28;20050;-89
2023/09/04 03:55:51;;;;;;;4.70;3.05;;;;;;;;;;2080297;28;20045;-90
2023/09/04 03:56:51;;;;;;;7.45;3.80;;;;;;;;;;2071922;28;20046;-89
2023/09/04 03:57:51;;;;;;;4.03;3.15;;;;;;;;;;2064147;28;20049;-90
2023/09/04 03:58:52;;;;;;;5.78;4.00;;;;;;;;;;2064112;28;20046;-89
2023/09/04 03:59:53;;;;;;;5.22;3.83;;;;;;;;;;2072014;28;20045;-90
2023/09/04 04:00:57;;;;;;;4.75;3.28;;;;;;;;;;2072322;28;20049;-89
2023/09/04 04:01:57;;;;;;;4.55;3.50;;;;;;;;;;2072457;28;20037;-89
2023/09/04 04:02:59;;;;;;;4.40;3.30;;;;;;;;;;2073341;28;20483;-90
2023/09/04 04:04:00;;;;;;;5.05;3.63;;;;;;;;;;2064131;28;20167;-88
2023/09/04 04:05:00;;;;;;;5.13;3.45;;;;;;;;;;2063978;28;20046;-89
2023/09/04 04:06:10;;;;;;;3.50;3.08;;;;;;;;;;2067633;28;20046;-89
2023/09/04 04:07:10;;;;;;;3.63;3.28;;;;;;;;;;2081731;28;20046;-88
2023/09/04 04:08:11;;;;;;;4.97;3.42;;;;;;;;;;2073513;28;20427;-88
2023/09/04 04:09:13;;;;;;;7.07;4.60;;;;;;;;;;2080882;28;20053;-89
2023/09/04 04:10:13;;;;;;;6.68;3.40;;;;;;;;;;1722763;28;10246299;-88
2023/09/04 04:11:14;;;;;;;4.00;3.60;;;;;;;;;;2072580;28;20482;-89
2023/09/04 04:12:15;;;;;;;4.13;3.60;;;;;;;;;;2065624;28;20152;-89
2023/09/04 04:13:15;;;;;;;3.72;3.20;;;;;;;;;;2063714;28;20077;-90
2023/09/04 04:14:15;;;;;;;4.30;3.17;;;;;;;;;;2080366;28;20686;-90
2023/09/04 04:15:16;;;;;;;5.00;3.40;;;;;;;;;;2080289;28;20047;-90
2023/09/04 04:16:16;;;;;;;4.53;3.38;;;;;;;;;;2063770;28;20038;-90
2023/09/04 04:17:17;;;;;;;4.20;3.70;;;;;;;;;;2063695;28;20076;-89
2023/09/04 04:18:17;;;;;;;4.93;3.60;;;;;;;;;;2064042;28;20034;-89
2023/09/04 04:19:19;;;;;;;4.13;3.22;;;;;;;;;;2066033;28;20483;-90
2023/09/04 04:20:20;;;;;;;4.20;3.33;;;;;;;;;;2063375;28;20165;-90
2023/09/04 04:21:20;;;;;;;6.25;3.28;;;;;;;;;;2063852;28;20026;-90
2023/09/04 04:22:21;;;;;;;4.05;3.42;;;;;;;;;;2079961;28;20171;-90
2023/09/04 04:23:21;;;;;;;4.28;3.20;;;;;;;;;;2080051;28;20104;-90
2023/09/04 04:24:21;;;;;;;3.88;3.13;;;;;;;;;;2072096;28;20460;-89
2023/09/04 04:25:23;;;;;;;4.20;3.25;;;;;;;;;;2071624;28;20125;-89
2023/09/04 04:26:24;;;;;;;3.38;3.03;;;;;;;;;;2071632;28;20032;-90
2023/09/04 04:27:25;;;;;;;5.97;3.30;;;;;;;;;;2071436;28;20038;-90
2023/09/04 04:28:25;;;;;;;4.53;3.35;;;;;;;;;;2079706;28;20157;-89
2023/09/04 04:29:26;;;;;;;4.68;3.40;;;;;;;;;;2080124;28;20487;-90
2023/09/04 04:30:26;;;;;;;4.95;3.25;;;;;;;;;;2063928;28;20026;-89
2023/09/04 04:31:26;;;;;;;3.58;3.28;;;;;;;;;;2063993;28;20038;-89
2023/09/04 04:32:27;;;;;;;5.30;3.25;;;;;;;;;;2071628;28;20380;-89
2023/09/04 04:33:27;;;;;;;3.92;3.10;;;;;;;;;;2063598;28;20108;-89
2023/09/04 04:34:28;;;;;;;4.78;3.50;;;;;;;;;;2063779;28;20026;-89
2023/09/04 04:35:28;;;;;;;5.00;4.15;;;;;;;;;;2072599;28;20038;-89
2023/09/04 04:36:28;;;;;;;4.63;3.42;;;;;;;;;;2072675;28;20073;-89
2023/09/04 04:37:29;;;;;;;3.92;2.95;;;;;;;;;;2072207;28;20026;-89
2023/09/04 04:38:29;;;;;;;3.72;3.28;;;;;;;;;;2072381;28;20033;-89
2023/09/04 04:39:30;;;;;;;4.45;3.63;;;;;;;;;;2071733;28;20100;-89
2023/09/04 04:40:30;;;;;;;3.95;2.80;;;;;;;;;;2063597;28;20037;-90
2023/09/04 04:41:32;;;;;;;4.65;3.22;;;;;;;;;;2071734;28;20516;-88
2023/09/04 04:42:32;;;;;;;4.05;2.95;;;;;;;;;;2080169;28;20549;-90
2023/09/04 04:43:32;;;;;;;3.67;2.65;;;;;;;;;;2071983;28;20112;-90
2023/09/04 04:44:33;;;;;;;3.15;2.80;;;;;;;;;;2072332;28;20519;-89
2023/09/04 04:45:33;;;;;;;3.88;3.40;;;;;;;;;;2063604;28;20042;-89
2023/09/04 04:46:34;;;;;;;4.05;3.50;;;;;;;;;;2063605;28;20042;-89
2023/09/04 04:47:36;;;;;;;3.72;2.72;;;;;;;;;;2072234;28;20052;-90
2023/09/04 04:48:37;;;;;;;2.95;2.60;;;;;;;;;;2071821;28;20081;-90
2023/09/04 04:49:41;;;;;;;3.47;2.50;;;;;;;;;;2064563;28;20038;-89
2023/09/04 04:50:41;;;;;;;3.10;2.63;;;;;;;;;;2071266;28;20102;-88
2023/09/04 04:51:41;;;;;;;3.30;2.80;;;;;;;;;;2072201;28;20543;-89
2023/09/04 04:52:42;;;;;;;3.35;2.60;;;;;;;;;;2064477;28;20053;-89
2023/09/04 04:53:42;;;;;;;3.70;2.60;;;;;;;;;;2070051;28;20042;-88
2023/09/04 04:54:43;;;;;;;3.72;2.33;;;;;;;;;;2079444;28;20053;-90
2023/09/04 04:55:43;;;;;;;3.60;2.80;;;;;;;;;;2072661;28;20049;-90
2023/09/04 04:56:43;;;;;;;6.07;3.35;;;;;;;;;;2063389;28;20045;-90
2023/09/04 04:57:44;;;;;;;3.25;2.50;;;;;;;;;;2071233;28;20495;-89
2023/09/04 04:58:47;;;;;;;5.03;2.80;;;;;;;;;;2079673;28;20071;-91
2023/09/04 04:59:47;;;;;;;3.58;2.70;;;;;;;;;;2080013;28;20111;-90
2023/09/04 05:00:48;;;;;;;3.08;2.50;;;;;;;;;;2071646;28;20038;-90
2023/09/04 05:01:49;;;;;;;3.45;2.70;;;;;;;;;;2063421;28;20225;-90
2023/09/04 05:02:49;;;;;;;3.63;2.70;;;;;;;;;;2063672;28;20038;-90
2023/09/04 05:03:50;;;;;;;2.88;2.67;;;;;;;;;;2072326;28;20104;-91
2023/09/04 05:04:50;;;;;;;3.65;2.85;;;;;;;;;;2063439;28;20054;-90
2023/09/04 05:05:51;;;;;;;6.15;2.95;;;;;;;;;;2063510;28;20046;-90
2023/09/04 05:06:51;;;;;;;5.07;3.40;;;;;;;;;;2063357;28;20034;-90
2023/09/04 05:07:51;;;;;;;3.15;2.60;;;;;;;;;;2063712;28;20104;-91
2023/09/04 05:08:52;;;;;;;4.53;3.10;;;;;;;;;;2072306;28;20042;-90
2023/09/04 05:09:53;;;;;;;3.72;3.03;;;;;;;;;;2072090;28;20530;-91
2023/09/04 05:11:02;;;;;;;5.82;2.88;;;;;;;;;;2071936;28;20045;-90
2023/09/04 05:12:03;;;;;;;3.80;2.85;;;;;;;;;;2072280;28;20069;-89
2023/09/04 05:13:04;;;;;;;4.90;2.53;;;;;;;;;;2079455;28;20034;-90
2023/09/04 05:14:04;;;;;;;2.97;2.58;;;;;;;;;;2079443;28;20509;-90
2023/09/04 05:15:05;;;;;;;3.47;2.72;;;;;;;;;;2071662;28;20510;-89
2023/09/04 05:16:06;;;;;;;3.13;2.42;;;;;;;;;;2072345;28;20053;-90
2023/09/04 05:17:06;;;;;;;3.80;2.72;;;;;;;;;;2071757;28;20050;-90
2023/09/04 05:18:06;;;;;;;3.40;2.65;;;;;;;;;;2071600;28;20046;-89
2023/09/04 05:19:07;;;;;;;2.72;2.40;;;;;;;;;;2081061;28;20041;-90
2023/09/04 05:20:09;;;;;;;2.75;2.30;;;;;;;;;;2079991;28;20122;-88
2023/09/04 05:21:10;;;;;;;2.25;2.05;;;;;;;;;;2072385;28;20060;-89
2023/09/04 05:22:10;;;;;;;3.67;2.70;;;;;;;;;;2063473;28;20050;-89
2023/09/04 05:23:10;;;;;;;4.00;2.40;;;;;;;;;;2071441;28;20399;-88
2023/09/04 05:24:11;;;;;;;5.00;2.78;;;;;;;;;;2079300;28;20659;-88
2023/09/04 05:25:12;;;;;;;3.35;2.75;;;;;;;;;;2072347;28;20037;-90
2023/09/04 05:26:12;;;;;;;4.13;3.13;;;;;;;;;;2071238;28;20131;-90
2023/09/04 05:27:13;;;;;;;9.07;3.30;;;;;;;;;;2079397;28;20040;-90
2023/09/04 05:28:13;;;;;;;7.82;3.60;;;;;;;;;;2079322;28;20057;-90
2023/09/04 05:29:15;;;;;;;5.00;2.83;;;;;;;;;;2063227;28;20066;-90
2023/09/04 05:30:15;;;;;;;4.65;2.83;;;;;;;;;;2063414;28;20042;-90
2023/09/04 05:31:16;;;;;;;3.30;2.50;;;;;;;;;;2079574;28;20526;-90
2023/09/04 05:32:16;;;;;;;5.78;2.60;;;;;;;;;;2079650;28;20418;-90
2023/09/04 05:33:16;;;;;;;5.47;2.42;;;;;;;;;;2063521;28;20093;-90
2023/09/04 05:34:18;;;;;;;3.58;2.30;;;;;;;;;;2071350;28;20089;-90
2023/09/04 05:35:18;;;;;;;4.75;2.47;;;;;;;;;;2079483;28;20561;-90
2023/09/04 05:36:19;;;;;;;3.90;2.60;;;;;;;;;;2071936;28;20042;-89
2023/09/04 05:37:20;;;;;;;2.97;2.33;;;;;;;;;;2063297;28;20068;-90
2023/09/04 05:38:20;;;;;;;3.10;2.42;;;;;;;;;;2058736;28;20046;-89
2023/09/04 05:39:21;;;;;;;2.58;2.22;;;;;;;;;;2071722;28;20499;-90
2023/09/04 05:40:21;;;;;;;2.60;2.40;;;;;;;;;;2075872;28;20057;-89
2023/09/04 05:41:22;;;;;;;3.70;2.00;;;;;;;;;;2084851;28;20048;-88
2023/09/04 05:42:22;;;;;;;4.15;2.80;;;;;;;;;;2071700;28;20471;-91
2023/09/04 05:43:23;;;;;;;2.72;2.25;;;;;;;;;;2063044;28;20435;-90
2023/09/04 05:44:23;;;;;;;3.53;2.40;;;;;;;;;;2071223;28;20033;-91
2023/09/04 05:45:24;;;;;;;2.80;2.08;;;;;;;;;;2071100;28;20451;-90
2023/09/04 05:46:24;;;;;;;3.90;2.55;;;;;;;;;;2071277;28;20029;-90
2023/09/04 05:47:24;;;;;;;6.30;5.70;;;;;;;;;;2079230;28;20194;-90
2023/09/04 05:48:25;;;;;;;4.50;4.10;;;;;;;;;;2062787;28;20044;-91
2023/09/04 05:49:25;;;;;;;3.97;2.75;;;;;;;;;;2063088;28;20026;-91
2023/09/04 05:50:25;;;;;;;2.92;2.33;;;;;;;;;;2079465;28;20033;-91
2023/09/04 05:51:26;;;;;;;2.80;2.30;;;;;;;;;;2079395;28;20037;-90
2023/09/04 05:52:26;;;;;;;3.22;2.25;;;;;;;;;;2072002;28;20032;-90
2023/09/04 05:53:28;;;;;;;3.50;2.50;;;;;;;;;;2071718;28;20030;-90
2023/09/04 05:54:29;;;;;;;2.83;2.10;;;;;;;;;;2062883;28;20443;-90
2023/09/04 05:55:29;;;;;;;2.58;2.05;;;;;;;;;;2062777;28;20050;-90
2023/09/04 05:56:29;;;;;;;3.47;2.63;;;;;;;;;;2071508;28;20499;-90
2023/09/04 05:57:30;;;;;;;2.50;2.15;;;;;;;;;;2071195;28;20065;-90
2023/09/04 05:58:30;;;;;;;4.20;2.50;;;;;;;;;;2063058;28;20030;-90
2023/09/04 05:59:31;;;;;;;5.25;2.50;;;;;;;;;;2063018;28;20518;-90
2023/09/04 06:00:31;;;;;;;5.10;2.50;;;;;;;;;;2062955;28;20037;-90
2023/09/04 06:01:31;;;;;;;3.53;2.45;;;;;;;;;;2079176;28;20025;-90
2023/09/04 06:02:32;;;;;;;2.22;2.03;;;;;;;;;;2079589;28;20088;-91
2023/09/04 06:03:32;;;;;;;4.47;2.40;;;;;;;;;;2071693;28;20206;-90
2023/09/04 06:04:33;;;;;;;2.90;2.38;;;;;;;;;;2063099;28;20038;-91
2023/09/04 06:05:33;;;;;;;5.20;2.22;;;;;;;;;;2070558;28;20037;-91
2023/09/04 06:06:33;;;;;;;3.15;2.15;;;;;;;;;;2079386;28;20033;-90